YEV weather

Inuvik Mike Zubko Airport
Inuvik, Northwest Territories, Canada

Public forecast

Using degrees Celsius for public forecast. Weather courtesy of forecast.io.

METAR (pilot weather report)

Retrieved 2019/08/24 21:00 UTC (53 minutes ago):

CYEV 242100Z 22009G19KT 15SM FEW010 SCT063 OVC200 09/M00 A2968 RMK SF1SC3CS5 SF TR SLP058

TAF (pilot weather forecast)

Retrieved 2019/08/24 19:39 UTC (2 hours ago):

TAF CYEV 241838Z 2419/2507 23008KT P6SM FEW010 SCT140 BKN200 RMK NXT FCST BY 250100Z